createdAt,value
2019-02-25T00:00:49.967Z,7.10
2019-02-25T00:03:18.667Z,7.10
2019-02-25T00:05:47.395Z,7.87
2019-02-25T00:08:16.229Z,7.20
2019-02-25T00:10:44.965Z,8.00
2019-02-25T00:13:13.791Z,8.48
2019-02-25T00:15:42.515Z,7.55
2019-02-25T00:18:11.189Z,8.60
2019-02-25T00:20:39.873Z,6.85
2019-02-25T00:23:08.263Z,8.70
2019-02-25T00:25:36.948Z,7.95
2019-02-25T00:28:05.668Z,8.23
2019-02-25T00:30:34.408Z,11.53
2019-02-25T00:33:03.361Z,9.80
2019-02-25T00:35:32.157Z,9.25
2019-02-25T00:38:00.873Z,8.25
2019-02-25T00:40:29.606Z,9.23
2019-02-25T00:42:58.260Z,8.28
2019-02-25T00:45:26.593Z,7.15
2019-02-25T00:47:55.310Z,9.05
2019-02-25T00:50:24.005Z,7.47
2019-02-25T00:52:52.689Z,7.47
2019-02-25T00:55:21.937Z,9.60
2019-02-25T00:57:50.660Z,8.15
2019-02-25T01:00:19.426Z,7.42
2019-02-25T01:02:48.333Z,7.50
2019-02-25T01:05:16.713Z,6.55
2019-02-25T01:07:45.419Z,7.97
2019-02-25T01:10:14.564Z,8.03
2019-02-25T01:12:43.830Z,7.85
2019-02-25T01:15:12.501Z,7.85
2019-02-25T01:17:41.437Z,9.30
2019-02-25T01:20:10.199Z,8.03
2019-02-25T01:22:38.826Z,9.13
2019-02-25T01:25:08.619Z,7.72
2019-02-25T01:27:36.882Z,8.50
2019-02-25T01:30:07.872Z,7.50
2019-02-25T01:32:37.265Z,8.13
2019-02-25T01:35:07.249Z,8.55
2019-02-25T01:37:36.258Z,9.23
2019-02-25T01:40:05.429Z,7.65
2019-02-25T01:42:34.104Z,7.70
2019-02-25T01:45:02.873Z,8.30
2019-02-25T01:47:31.532Z,7.40
2019-02-25T01:49:59.821Z,6.70
2019-02-25T01:52:28.776Z,6.92
2019-02-25T01:54:57.426Z,8.03
2019-02-25T01:57:26.082Z,8.60
2019-02-25T01:59:54.725Z,7.65
2019-02-25T02:02:23.378Z,7.60
2019-02-25T02:04:52.283Z,6.95
2019-02-25T02:07:21.100Z,8.25
2019-02-25T02:09:49.825Z,7.72
2019-02-25T02:12:18.121Z,7.25
2019-02-25T02:14:46.775Z,8.15
2019-02-25T02:17:15.477Z,7.90
2019-02-25T02:19:44.137Z,6.95
2019-02-25T02:22:12.789Z,7.03
2019-02-25T02:24:42.285Z,7.90
2019-02-25T02:27:10.918Z,7.65
2019-02-25T02:29:39.614Z,7.85
2019-02-25T02:32:08.279Z,7.50
2019-02-25T02:34:36.538Z,7.22
2019-02-25T02:37:05.211Z,7.40
2019-02-25T02:39:34.134Z,6.87
2019-02-25T02:42:12.707Z,7.45
2019-02-25T02:44:41.898Z,7.17
2019-02-25T02:47:34.964Z,8.05
2019-02-25T02:50:03.885Z,7.62
2019-02-25T02:52:33.183Z,6.17
2019-02-25T02:55:01.453Z,7.15
2019-02-25T02:57:30.132Z,7.25
2019-02-25T02:59:58.777Z,6.92
2019-02-25T03:02:27.444Z,7.90
2019-02-25T03:04:56.145Z,8.13
2019-02-25T03:07:24.843Z,7.00
2019-02-25T03:09:53.482Z,8.23
2019-02-25T03:12:22.129Z,6.97
2019-02-25T03:14:50.839Z,5.60
2019-02-25T03:17:19.121Z,6.70
2019-02-25T03:19:47.865Z,8.08
2019-02-25T03:22:16.712Z,8.23
2019-02-25T03:24:45.382Z,8.00
2019-02-25T03:27:14.057Z,7.97
2019-02-25T03:29:42.708Z,8.78
2019-02-25T03:32:11.646Z,7.45
2019-02-25T03:34:40.290Z,8.80
2019-02-25T03:37:08.572Z,7.10
2019-02-25T03:39:36.871Z,7.65
2019-02-25T03:42:05.576Z,7.60
2019-02-25T03:44:34.240Z,9.30
2019-02-25T03:47:02.919Z,9.73
2019-02-25T03:49:31.585Z,8.83
2019-02-25T03:52:00.294Z,8.75
2019-02-25T03:54:29.302Z,7.72
2019-02-25T03:56:58.306Z,7.92
2019-02-25T03:59:26.587Z,7.75
2019-02-25T04:01:55.262Z,9.08
2019-02-25T04:04:23.910Z,8.83
2019-02-25T04:06:52.687Z,7.72
2019-02-25T04:09:21.624Z,8.28
2019-02-25T04:11:50.285Z,8.75
2019-02-25T04:14:19.069Z,6.95
2019-02-25T04:16:47.804Z,8.55
2019-02-25T04:19:16.501Z,7.95
2019-02-25T04:21:44.784Z,7.60
2019-02-25T04:24:13.475Z,7.97
2019-02-25T04:26:42.154Z,8.40
2019-02-25T04:29:10.820Z,8.10
2019-02-25T04:31:39.545Z,8.28
2019-02-25T04:34:08.212Z,9.30
2019-02-25T04:36:36.873Z,9.23
2019-02-25T04:39:06.189Z,8.48
2019-02-25T04:41:34.833Z,7.20
2019-02-25T04:44:03.145Z,8.83
2019-02-25T04:46:31.864Z,9.33
2019-02-25T04:49:00.806Z,9.70
2019-02-25T04:51:29.455Z,9.73
2019-02-25T04:53:58.113Z,10.85
2019-02-25T04:56:26.819Z,12.70
2019-02-25T04:58:55.503Z,11.45
2019-02-25T05:01:24.169Z,13.68
2019-02-25T05:03:52.851Z,9.60
2019-02-25T05:06:21.128Z,10.35
2019-02-25T05:08:50.108Z,10.50
2019-02-25T05:11:18.903Z,10.18
2019-02-25T05:13:47.571Z,9.80
2019-02-25T05:16:16.287Z,13.32
2019-02-25T05:18:44.998Z,8.95
2019-02-25T05:21:13.725Z,10.10
2019-02-25T05:23:42.746Z,10.05
2019-02-25T05:26:11.030Z,9.43
2019-02-25T05:28:39.694Z,9.75
2019-02-25T05:31:08.385Z,10.10
2019-02-25T05:33:37.349Z,9.10
2019-02-25T05:36:06.069Z,10.55
2019-02-25T05:38:34.733Z,9.08
2019-02-25T05:41:03.384Z,9.85
2019-02-25T05:43:32.041Z,8.85
2019-02-25T05:46:00.718Z,9.05
2019-02-25T05:48:28.999Z,8.00
2019-02-25T05:50:57.855Z,9.80
2019-02-25T05:53:26.569Z,10.35
2019-02-25T05:55:55.288Z,8.75
2019-02-25T05:58:23.990Z,9.65
2019-02-25T06:00:52.753Z,9.75
2019-02-25T06:03:21.471Z,8.28
2019-02-25T06:05:50.222Z,9.90
2019-02-25T06:08:19.157Z,9.30
2019-02-25T06:10:47.450Z,9.93
2019-02-25T06:13:16.230Z,15.70
2019-02-25T06:15:45.141Z,20.57
2019-02-25T06:18:13.994Z,14.07
2019-02-25T06:20:42.645Z,14.03
2019-02-25T06:23:11.459Z,10.43
2019-02-25T06:25:40.118Z,8.45
2019-02-25T06:28:09.032Z,9.00
2019-02-25T06:30:37.938Z,9.33
2019-02-25T06:33:06.213Z,10.80
2019-02-25T06:35:34.881Z,11.20
2019-02-25T06:38:03.686Z,10.85
2019-02-25T06:40:32.368Z,10.98
2019-02-25T06:43:01.286Z,11.18
2019-02-25T06:45:31.169Z,10.82
2019-02-25T06:48:00.063Z,10.45
2019-02-25T06:50:28.810Z,10.85
2019-02-25T06:52:57.477Z,8.95
2019-02-25T06:55:25.761Z,10.82
2019-02-25T06:57:54.412Z,11.63
2019-02-25T07:00:23.103Z,11.78
2019-02-25T07:02:51.756Z,13.50
2019-02-25T07:05:37.310Z,12.28
2019-02-25T07:08:25.019Z,12.80
2019-02-25T07:11:02.801Z,12.93
2019-02-25T07:13:49.518Z,12.60
2019-02-25T07:16:31.142Z,11.53
2019-02-25T07:19:27.670Z,10.08
2019-02-25T07:22:18.258Z,11.50
2019-02-25T07:24:57.382Z,11.15
2019-02-25T07:27:54.425Z,12.00
2019-02-25T07:30:28.782Z,11.70
2019-02-25T07:33:15.790Z,10.00
2019-02-25T07:35:54.346Z,10.00
2019-02-25T07:38:39.369Z,10.25
2019-02-25T07:41:24.825Z,11.15
2019-02-25T07:44:11.708Z,11.15
2019-02-25T07:47:01.482Z,10.28
2019-02-25T07:49:38.739Z,10.23
2019-02-25T07:52:29.350Z,10.30
2019-02-25T07:55:26.134Z,9.00
2019-02-25T07:58:29.009Z,8.50
2019-02-25T08:01:22.608Z,8.63
2019-02-25T08:04:04.116Z,8.90
2019-02-25T08:06:38.746Z,9.27
2019-02-25T08:09:33.257Z,7.70
2019-02-25T08:12:26.122Z,7.43
2019-02-25T08:15:22.769Z,8.60
2019-02-25T08:18:09.111Z,8.90
2019-02-25T08:20:46.387Z,9.67
2019-02-25T08:23:24.953Z,8.80
2019-02-25T08:26:12.685Z,10.60
2019-02-25T08:29:00.432Z,9.53
2019-02-25T08:31:46.930Z,8.93
2019-02-25T08:34:26.452Z,7.63
2019-02-25T08:37:18.891Z,7.77
2019-02-25T08:39:59.157Z,7.63
2019-02-25T08:42:35.070Z,7.00
2019-02-25T08:45:12.800Z,6.83
2019-02-25T08:48:06.573Z,7.40
2019-02-25T08:50:35.216Z,6.57
2019-02-25T08:53:03.887Z,5.53
2019-02-25T08:55:32.873Z,5.80
2019-02-25T08:58:01.136Z,6.10
2019-02-25T09:00:29.884Z,7.10
2019-02-25T09:02:58.560Z,7.80
2019-02-25T09:05:27.499Z,6.10
2019-02-25T09:07:56.197Z,6.67
2019-02-25T09:10:25.180Z,6.93
2019-02-25T09:12:53.829Z,8.57
2019-02-25T09:15:22.491Z,7.40
2019-02-25T09:17:49.962Z,7.60
2019-02-25T09:20:18.316Z,7.37
2019-02-25T09:22:46.988Z,7.30
2019-02-25T09:25:15.746Z,7.33
2019-02-25T09:27:44.373Z,8.93
2019-02-25T09:30:15.284Z,7.00
2019-02-25T09:32:44.034Z,7.37
2019-02-25T09:35:12.755Z,7.73
2019-02-25T09:37:41.405Z,8.30
2019-02-25T09:40:10.356Z,7.57
2019-02-25T09:42:39.021Z,6.70
2019-02-25T09:45:09.117Z,7.57
2019-02-25T09:47:37.778Z,8.70
2019-02-25T09:50:07.518Z,7.80
2019-02-25T09:52:36.266Z,7.40
2019-02-25T09:55:05.304Z,7.57
2019-02-25T09:57:33.939Z,6.70
2019-02-25T10:00:02.631Z,8.07
2019-02-25T10:02:30.981Z,7.07
2019-02-25T10:04:59.684Z,7.00
2019-02-25T10:07:28.656Z,7.33
2019-02-25T10:09:57.393Z,7.23
2019-02-25T10:12:26.325Z,6.00
2019-02-25T10:14:54.959Z,6.20
2019-02-25T10:17:24.181Z,6.90
2019-02-25T10:19:52.883Z,7.40
2019-02-25T10:22:21.644Z,8.30
2019-02-25T10:24:49.917Z,8.37
2019-02-25T10:27:18.616Z,6.57
2019-02-25T10:29:47.368Z,7.83
2019-02-25T10:32:16.058Z,6.83
2019-02-25T10:34:44.711Z,7.60
2019-02-25T10:37:15.086Z,7.50
2019-02-25T10:39:45.324Z,8.17
2019-02-25T10:42:14.131Z,9.40
2019-02-25T10:44:42.870Z,7.90
2019-02-25T10:47:13.058Z,7.70
2019-02-25T10:49:41.586Z,7.60
2019-02-25T10:52:10.832Z,7.70
2019-02-25T10:54:41.845Z,9.37
2019-02-25T10:57:14.538Z,8.37
2019-02-25T10:59:43.191Z,9.03
2019-02-25T11:02:13.685Z,8.20
2019-02-25T11:04:42.262Z,7.73
2019-02-25T11:07:10.912Z,8.90
2019-02-25T11:09:50.466Z,9.03
2019-02-25T11:12:19.267Z,8.90
2019-02-25T11:14:47.924Z,10.40
2019-02-25T11:17:18.202Z,9.73
2019-02-25T11:19:47.020Z,8.93
2019-02-25T11:22:16.369Z,7.93
2019-02-25T11:24:46.858Z,8.37
2019-02-25T11:27:15.669Z,9.43
2019-02-25T11:29:45.729Z,6.67
2019-02-25T11:32:14.598Z,9.07
2019-02-25T11:34:43.253Z,9.20
2019-02-25T11:37:11.909Z,8.50
2019-02-25T11:39:40.866Z,7.83
2019-02-25T11:42:10.828Z,8.03
2019-02-25T11:44:39.950Z,8.10
2019-02-25T11:47:08.778Z,7.67
2019-02-25T11:49:37.446Z,7.80
2019-02-25T11:52:05.839Z,8.30
2019-02-25T11:54:34.526Z,9.80
2019-02-25T11:57:03.540Z,7.40
2019-02-25T11:59:32.200Z,8.00
2019-02-25T12:02:00.922Z,8.27
2019-02-25T12:04:29.600Z,8.30
2019-02-25T12:06:58.286Z,8.20
2019-02-25T12:09:26.937Z,6.70
2019-02-25T12:11:55.610Z,7.40
2019-02-25T12:14:23.921Z,7.77
2019-02-25T12:16:52.595Z,6.83
2019-02-25T12:19:21.398Z,7.60
2019-02-25T12:21:50.063Z,8.60
2019-02-25T12:24:18.728Z,7.00
2019-02-25T12:26:47.382Z,7.23
2019-02-25T12:29:16.301Z,8.13
2019-02-25T12:31:44.959Z,6.50
2019-02-25T12:34:13.622Z,6.90
2019-02-25T12:36:41.963Z,3.33
2019-02-25T12:39:10.979Z,3.43
2019-02-25T12:41:39.750Z,3.50
2019-02-25T12:44:08.482Z,3.13
2019-02-25T12:46:37.130Z,2.93
2019-02-25T12:49:05.836Z,3.17
2019-02-25T12:51:34.476Z,3.13
2019-02-25T12:54:03.201Z,3.23
2019-02-25T12:56:31.854Z,2.27
2019-02-25T12:59:00.245Z,2.67
2019-02-25T13:01:28.989Z,2.67
2019-02-25T13:03:57.649Z,3.10
2019-02-25T13:06:26.595Z,2.90
2019-02-25T13:08:55.705Z,2.37
2019-02-25T13:11:24.679Z,2.13
2019-02-25T13:13:53.421Z,2.53
2019-02-25T13:16:22.071Z,2.80
2019-02-25T13:18:50.458Z,2.17
2019-02-25T13:21:19.162Z,2.20
2019-02-25T13:23:47.832Z,2.93
2019-02-25T13:26:16.500Z,2.10
2019-02-25T13:28:45.205Z,2.70
2019-02-25T13:31:14.175Z,2.77
2019-02-25T13:33:42.898Z,2.63
2019-02-25T13:36:12.830Z,2.80
2019-02-25T13:38:41.595Z,2.37
2019-02-25T13:41:10.152Z,2.60
2019-02-25T13:43:38.952Z,2.90
2019-02-25T13:46:07.830Z,2.77
2019-02-25T13:48:36.563Z,3.07
2019-02-25T13:51:05.226Z,2.70
2019-02-25T13:53:33.949Z,3.50
2019-02-25T13:56:02.693Z,3.07
2019-02-25T13:58:31.883Z,3.27
2019-02-25T14:01:00.780Z,2.53
2019-02-25T14:03:29.133Z,2.53
2019-02-25T14:05:57.869Z,2.97
2019-02-25T14:08:26.808Z,2.70
2019-02-25T14:10:55.633Z,3.10
2019-02-25T14:13:24.308Z,2.50
2019-02-25T14:15:53.266Z,3.03
2019-02-25T14:18:22.265Z,2.83
2019-02-25T14:20:51.283Z,2.70
2019-02-25T14:23:20.420Z,3.37
2019-02-25T14:25:48.749Z,3.23
2019-02-25T14:28:17.402Z,2.97
2019-02-25T14:30:46.059Z,3.20
2019-02-25T14:33:14.936Z,3.53
2019-02-25T14:35:43.722Z,3.00
2019-02-25T14:38:15.933Z,3.53
2019-02-25T14:40:44.816Z,3.70
2019-02-25T14:43:15.621Z,2.80
2019-02-25T14:45:46.024Z,3.50
2019-02-25T14:48:18.231Z,3.20
2019-02-25T14:50:44.303Z,3.40
2019-02-25T14:53:14.320Z,3.57
2019-02-25T14:55:46.948Z,4.13
2019-02-25T14:58:15.513Z,4.30
2019-02-25T15:00:44.079Z,3.70
2019-02-25T15:03:12.786Z,3.60
2019-02-25T15:05:41.974Z,4.07
2019-02-25T15:08:10.401Z,3.33
2019-02-25T15:10:40.692Z,4.30
2019-02-25T15:13:10.547Z,4.27
2019-02-25T15:15:41.285Z,3.50
2019-02-25T15:18:10.072Z,4.93
2019-02-25T15:20:38.712Z,4.60
2019-02-25T15:23:07.900Z,4.50
2019-02-25T15:25:40.394Z,4.70
2019-02-25T15:28:09.415Z,3.70
2019-02-25T15:30:37.425Z,4.17
2019-02-25T15:33:07.016Z,4.70
2019-02-25T15:35:37.125Z,3.50
2019-02-25T15:38:06.172Z,4.47
2019-02-25T15:40:34.852Z,4.17
2019-02-25T15:43:12.572Z,4.47
2019-02-25T15:45:41.992Z,4.17
2019-02-25T15:48:17.840Z,4.07
2019-02-25T15:50:48.425Z,4.30
2019-02-25T15:53:18.104Z,4.57
2019-02-25T15:55:46.375Z,3.90
2019-02-25T15:58:15.414Z,11.63
2019-02-25T16:00:44.643Z,7.53
2019-02-25T16:03:13.703Z,22.83
2019-02-25T16:05:44.429Z,5.80
2019-02-25T16:08:16.130Z,5.20
2019-02-25T16:10:44.481Z,5.13
2019-02-25T16:13:14.284Z,5.13
2019-02-25T16:15:43.115Z,4.10
2019-02-25T16:18:13.646Z,4.90
2019-02-25T16:20:45.952Z,4.37
2019-02-25T16:23:13.026Z,5.47
2019-02-25T16:25:42.130Z,4.23
2019-02-25T16:28:14.435Z,4.43
2019-02-25T16:30:42.435Z,4.80
2019-02-25T16:33:14.352Z,4.97
2019-02-25T16:35:43.621Z,5.00
2019-02-25T16:38:12.694Z,4.63
2019-02-25T16:40:41.038Z,5.53
2019-02-25T16:43:12.503Z,5.30
2019-02-25T16:45:41.945Z,4.67
2019-02-25T16:48:10.673Z,6.10
2019-02-25T16:50:41.528Z,5.37
2019-02-25T16:53:10.875Z,5.90
2019-02-25T16:55:42.174Z,5.30
2019-02-25T16:58:13.189Z,5.37
2019-02-25T17:00:41.898Z,5.13
2019-02-25T17:03:11.140Z,5.77
2019-02-25T17:05:42.880Z,4.93
2019-02-25T17:08:14.696Z,6.10
2019-02-25T17:10:43.606Z,5.57
2019-02-25T17:13:14.318Z,6.37
2019-02-25T17:15:45.937Z,7.07
2019-02-25T17:18:15.804Z,6.80
2019-02-25T17:20:45.125Z,6.80
2019-02-25T17:23:14.507Z,7.13
2019-02-25T17:25:43.540Z,6.70
2019-02-25T17:28:15.237Z,6.63
2019-02-25T17:30:45.613Z,6.87
2019-02-25T17:33:14.841Z,6.50
2019-02-25T17:35:45.326Z,10.07
2019-02-25T17:38:14.180Z,7.97
2019-02-25T17:40:43.090Z,5.90
2019-02-25T17:43:13.971Z,8.80
2019-02-25T17:45:43.071Z,7.03
2019-02-25T17:48:13.685Z,8.60
2019-02-25T17:50:42.287Z,12.60
2019-02-25T17:53:11.014Z,12.97
2019-02-25T17:55:39.849Z,11.60
2019-02-25T17:58:09.167Z,11.70
2019-02-25T18:00:42.257Z,9.50
2019-02-25T18:03:10.213Z,7.90
2019-02-25T18:05:40.667Z,9.30
2019-02-25T18:08:14.566Z,7.27
2019-02-25T18:10:42.862Z,6.80
2019-02-25T18:13:11.485Z,8.07
2019-02-25T18:15:40.526Z,11.00
2019-02-25T18:18:11.826Z,11.93
2019-02-25T18:20:39.731Z,14.30
2019-02-25T18:23:08.574Z,16.33
2019-02-25T18:25:37.625Z,8.30
2019-02-25T18:28:08.526Z,8.20
2019-02-25T18:30:38.505Z,6.20
2019-02-25T18:33:07.037Z,8.80
2019-02-25T18:35:38.220Z,9.70
2019-02-25T18:38:07.624Z,10.10
2019-02-25T18:40:40.142Z,12.80
2019-02-25T18:43:07.640Z,10.57
2019-02-25T18:45:38.440Z,9.43
2019-02-25T18:48:07.297Z,9.27
2019-02-25T18:50:36.360Z,8.87
2019-02-25T18:53:05.136Z,16.27
2019-02-25T18:55:34.224Z,17.40
2019-02-25T18:58:05.058Z,20.40
2019-02-25T19:00:36.973Z,26.30
2019-02-25T19:03:05.876Z,12.07
2019-02-25T19:05:34.590Z,9.70
2019-02-25T19:08:04.913Z,7.27
2019-02-25T19:10:33.633Z,6.80
2019-02-25T19:13:02.770Z,5.77
2019-02-25T19:15:31.151Z,5.67
2019-02-25T19:17:59.796Z,7.60
2019-02-25T19:20:28.647Z,6.20
2019-02-25T19:23:00.477Z,6.10
2019-02-25T19:25:28.063Z,6.40
2019-02-25T19:27:58.610Z,6.30
2019-02-25T19:30:29.351Z,5.43
2019-02-25T19:32:57.837Z,8.47
2019-02-25T19:35:28.714Z,12.20
2019-02-25T19:37:57.067Z,5.13
2019-02-25T19:40:25.768Z,5.40
2019-02-25T19:42:56.721Z,5.20
2019-02-25T19:45:25.040Z,5.20
2019-02-25T19:47:55.980Z,5.60
2019-02-25T19:50:25.961Z,5.80
2019-02-25T19:52:54.903Z,5.43
2019-02-25T19:55:23.937Z,7.60
2019-02-25T19:57:52.597Z,11.77
2019-02-25T20:00:25.711Z,160.97
2019-02-25T20:03:04.788Z,247.53
2019-02-25T20:05:27.105Z,202.50
2019-02-25T20:07:55.805Z,172.10
2019-02-25T20:10:24.934Z,85.40
2019-02-25T20:12:53.861Z,91.40
2019-02-25T20:15:25.049Z,46.33
2019-02-25T20:17:55.193Z,29.17
2019-02-25T20:20:25.429Z,21.13
2019-02-25T20:22:53.725Z,14.23
2019-02-25T20:25:24.650Z,18.50
2019-02-25T20:27:54.993Z,47.17
2019-02-25T20:30:25.741Z,57.97
2019-02-25T20:32:54.652Z,45.60
2019-02-25T20:35:24.584Z,32.73
2019-02-25T20:37:55.495Z,23.00
2019-02-25T20:40:26.015Z,27.33
2019-02-25T20:42:56.088Z,25.80
2019-02-25T20:45:25.233Z,20.47
2019-02-25T20:47:56.987Z,18.30
2019-02-25T20:50:25.203Z,16.97
2019-02-25T20:52:55.854Z,13.27
2019-02-25T20:55:25.319Z,12.75
2019-02-25T20:57:54.963Z,8.98
2019-02-25T21:00:23.949Z,9.88
2019-02-25T21:02:52.757Z,8.28
2019-02-25T21:05:22.772Z,23.65
2019-02-25T21:07:53.359Z,61.47
2019-02-25T21:10:22.737Z,32.48
2019-02-25T21:12:54.599Z,13.70
2019-02-25T21:15:23.121Z,9.05
2019-02-25T21:17:52.162Z,11.33
2019-02-25T21:20:23.676Z,13.48
2019-02-25T21:22:57.304Z,14.28
2019-02-25T21:25:26.397Z,12.10
2019-02-25T21:27:57.179Z,12.05
2019-02-25T21:30:24.167Z,10.43
2019-02-25T21:32:54.356Z,8.60
2019-02-25T21:35:25.550Z,8.28
2019-02-25T21:37:54.624Z,7.80
2019-02-25T21:40:25.048Z,11.57
2019-02-25T21:42:56.352Z,11.83
2019-02-25T21:45:27.084Z,13.55
2019-02-25T21:47:56.536Z,14.87
2019-02-25T21:50:28.358Z,9.05
2019-02-25T21:52:56.167Z,9.43
2019-02-25T21:55:26.229Z,11.30
2019-02-25T21:57:57.239Z,11.05
2019-02-25T22:00:27.087Z,11.88
2019-02-25T22:02:56.659Z,14.60
2019-02-25T22:05:25.384Z,15.08
2019-02-25T22:07:56.647Z,15.00
2019-02-25T22:10:24.528Z,15.08
2019-02-25T22:12:53.228Z,23.12
2019-02-25T22:15:22.410Z,13.85
2019-02-25T22:17:53.386Z,15.88
2019-02-25T22:20:23.350Z,48.35
2019-02-25T22:22:56.698Z,15.58
2019-02-25T22:25:23.000Z,26.77
2019-02-25T22:27:51.724Z,15.65
2019-02-25T22:30:20.424Z,16.17
2019-02-25T22:32:49.212Z,14.80
2019-02-25T22:35:17.899Z,13.58
2019-02-25T22:37:49.295Z,13.25
2019-02-25T22:40:17.323Z,13.65
2019-02-25T22:42:47.987Z,18.02
2019-02-25T22:45:18.606Z,15.65
2019-02-25T22:47:47.125Z,17.27
2019-02-25T22:50:15.845Z,19.10
2019-02-25T22:52:44.540Z,18.57
2019-02-25T22:55:15.323Z,18.70
2019-02-25T22:57:45.734Z,13.15
2019-02-25T23:00:15.541Z,13.38
2019-02-25T23:02:45.207Z,13.98
2019-02-25T23:05:18.577Z,14.53
2019-02-25T23:07:48.028Z,13.55
2019-02-25T23:10:17.444Z,13.35
2019-02-25T23:12:47.118Z,14.20
2019-02-25T23:15:15.786Z,15.75
2019-02-25T23:17:46.133Z,13.70
2019-02-25T23:20:14.507Z,15.50
2019-02-25T23:22:43.582Z,15.88
2019-02-25T23:25:12.562Z,14.30
2019-02-25T23:27:41.224Z,17.02
2019-02-25T23:30:09.973Z,15.38
2019-02-25T23:32:39.454Z,15.70
2019-02-25T23:35:11.463Z,16.73
2019-02-25T23:37:38.854Z,16.35
2019-02-25T23:40:09.500Z,15.65
2019-02-25T23:42:39.668Z,15.72
2019-02-25T23:45:08.805Z,15.85
2019-02-25T23:47:39.550Z,16.35
2019-02-25T23:50:10.539Z,16.48
2019-02-25T23:52:39.185Z,16.40
2019-02-25T23:55:12.169Z,16.37
2019-02-25T23:57:39.036Z,17.12
